sensor_id;sensor_type;location;lat;lon;timestamp;temperature;humidity
25554;DHT22;13446;50.926;5.332;2022-11-10T00:01:50;11.40;99.90
25554;DHT22;13446;50.926;5.332;2022-11-10T00:04:16;11.50;99.90
25554;DHT22;13446;50.926;5.332;2022-11-10T00:06:41;11.40;99.90
25554;DHT22;13446;50.926;5.332;2022-11-10T00:09:09;11.30;99.90
25554;DHT22;13446;50.926;5.332;2022-11-10T00:11:34;11.30;99.90
25554;DHT22;13446;50.926;5.332;2022-11-10T00:14:00;11.30;99.90
25554;DHT22;13446;50.926;5.332;2022-11-10T00:16:44;11.30;99.90
25554;DHT22;13446;50.926;5.332;2022-11-10T00:19:25;11.30;99.90
25554;DHT22;13446;50.926;5.332;2022-11-10T00:21:51;11.20;99.90
25554;DHT22;13446;50.926;5.332;2022-11-10T00:24:18;11.20;99.90
25554;DHT22;13446;50.926;5.332;2022-11-10T00:26:44;11.20;99.90
25554;DHT22;13446;50.926;5.332;2022-11-10T00:29:09;11.30;99.90
25554;DHT22;13446;50.926;5.332;2022-11-10T00:31:38;11.30;99.90
25554;DHT22;13446;50.926;5.332;2022-11-10T00:34:04;11.30;99.90
25554;DHT22;13446;50.926;5.332;2022-11-10T00:36:30;11.30;99.90
25554;DHT22;13446;50.926;5.332;2022-11-10T00:38:55;11.20;99.90
25554;DHT22;13446;50.926;5.332;2022-11-10T00:41:22;11.10;99.90
25554;DHT22;13446;50.926;5.332;2022-11-10T00:43:48;11.10;99.90
25554;DHT22;13446;50.926;5.332;2022-11-10T00:46:14;11.10;99.90
25554;DHT22;13446;50.926;5.332;2022-11-10T00:48:39;11.10;99.90
25554;DHT22;13446;50.926;5.332;2022-11-10T00:51:05;11.10;99.90
25554;DHT22;13446;50.926;5.332;2022-11-10T00:53:31;11.10;99.90
25554;DHT22;13446;50.926;5.332;2022-11-10T00:55:56;11.30;99.90
25554;DHT22;13446;50.926;5.332;2022-11-10T00:58:21;11.30;99.90
25554;DHT22;13446;50.926;5.332;2022-11-10T01:00:47;11.30;99.90
25554;DHT22;13446;50.926;5.332;2022-11-10T01:03:13;11.20;99.90
25554;DHT22;13446;50.926;5.332;2022-11-10T01:05:39;11.20;99.90
25554;DHT22;13446;50.926;5.332;2022-11-10T01:08:05;11.20;99.90
25554;DHT22;13446;50.926;5.332;2022-11-10T01:10:30;11.10;99.90
25554;DHT22;13446;50.926;5.332;2022-11-10T01:12:57;11.10;99.90
25554;DHT22;13446;50.926;5.332;2022-11-10T01:15:23;11.00;99.90
25554;DHT22;13446;50.926;5.332;2022-11-10T01:17:48;10.90;99.90
25554;DHT22;13446;50.926;5.332;2022-11-10T01:20:14;11.00;99.90
25554;DHT22;13446;50.926;5.332;2022-11-10T01:22:40;11.00;99.90
25554;DHT22;13446;50.926;5.332;2022-11-10T01:25:06;10.90;99.90
25554;DHT22;13446;50.926;5.332;2022-11-10T01:27:31;10.90;99.90
25554;DHT22;13446;50.926;5.332;2022-11-10T01:29:57;10.90;99.90
25554;DHT22;13446;50.926;5.332;2022-11-10T01:32:22;10.90;99.90
25554;DHT22;13446;50.926;5.332;2022-11-10T01:34:48;11.00;99.90
25554;DHT22;13446;50.926;5.332;2022-11-10T01:37:13;11.20;99.90
25554;DHT22;13446;50.926;5.332;2022-11-10T01:39:39;11.10;99.90
25554;DHT22;13446;50.926;5.332;2022-11-10T01:42:04;11.10;99.90
25554;DHT22;13446;50.926;5.332;2022-11-10T01:44:33;11.20;99.90
25554;DHT22;13446;50.926;5.332;2022-11-10T01:47:00;11.10;99.90
25554;DHT22;13446;50.926;5.332;2022-11-10T01:49:25;11.00;99.90
25554;DHT22;13446;50.926;5.332;2022-11-10T01:52:00;10.90;99.90
25554;DHT22;13446;50.926;5.332;2022-11-10T01:54:29;10.90;99.90
25554;DHT22;13446;50.926;5.332;2022-11-10T01:56:57;11.00;99.90
25554;DHT22;13446;50.926;5.332;2022-11-10T01:59:25;11.00;99.90
25554;DHT22;13446;50.926;5.332;2022-11-10T02:01:53;10.90;99.90
25554;DHT22;13446;50.926;5.332;2022-11-10T02:04:21;10.80;99.90
25554;DHT22;13446;50.926;5.332;2022-11-10T02:06:47;10.90;99.90
25554;DHT22;13446;50.926;5.332;2022-11-10T02:09:13;10.90;99.90
25554;DHT22;13446;50.926;5.332;2022-11-10T02:11:39;10.90;99.90
25554;DHT22;13446;50.926;5.332;2022-11-10T02:14:05;10.90;99.90
25554;DHT22;13446;50.926;5.332;2022-11-10T02:16:31;10.90;99.90
25554;DHT22;13446;50.926;5.332;2022-11-10T02:19:09;10.90;99.90
25554;DHT22;13446;50.926;5.332;2022-11-10T02:21:35;11.00;99.90
25554;DHT22;13446;50.926;5.332;2022-11-10T02:24:01;11.10;99.90
25554;DHT22;13446;50.926;5.332;2022-11-10T02:26:27;10.90;99.90
25554;DHT22;13446;50.926;5.332;2022-11-10T02:28:54;10.80;99.90
25554;DHT22;13446;50.926;5.332;2022-11-10T02:31:20;10.90;99.90
25554;DHT22;13446;50.926;5.332;2022-11-10T02:33:46;10.80;99.90
25554;DHT22;13446;50.926;5.332;2022-11-10T02:36:11;10.80;99.90
25554;DHT22;13446;50.926;5.332;2022-11-10T02:38:37;10.70;99.90
25554;DHT22;13446;50.926;5.332;2022-11-10T02:41:04;10.70;99.90
25554;DHT22;13446;50.926;5.332;2022-11-10T02:43:29;10.70;99.90
25554;DHT22;13446;50.926;5.332;2022-11-10T02:45:55;10.90;99.90
25554;DHT22;13446;50.926;5.332;2022-11-10T02:48:21;10.80;99.90
25554;DHT22;13446;50.926;5.332;2022-11-10T02:50:46;10.80;99.90
25554;DHT22;13446;50.926;5.332;2022-11-10T02:53:12;10.80;99.90
25554;DHT22;13446;50.926;5.332;2022-11-10T02:55:38;10.80;99.90
25554;DHT22;13446;50.926;5.332;2022-11-10T02:58:06;10.80;99.90
25554;DHT22;13446;50.926;5.332;2022-11-10T03:00:31;10.80;99.90
25554;DHT22;13446;50.926;5.332;2022-11-10T03:02:57;10.80;99.90
25554;DHT22;13446;50.926;5.332;2022-11-10T03:05:26;10.90;99.90
25554;DHT22;13446;50.926;5.332;2022-11-10T03:07:53;10.90;99.90
25554;DHT22;13446;50.926;5.332;2022-11-10T03:10:19;11.00;99.90
25554;DHT22;13446;50.926;5.332;2022-11-10T03:12:46;11.10;99.90
25554;DHT22;13446;50.926;5.332;2022-11-10T03:15:12;11.10;99.90
25554;DHT22;13446;50.926;5.332;2022-11-10T03:17:38;11.10;99.90
25554;DHT22;13446;50.926;5.332;2022-11-10T03:20:05;11.00;99.90
25554;DHT22;13446;50.926;5.332;2022-11-10T03:22:30;10.90;99.90
25554;DHT22;13446;50.926;5.332;2022-11-10T03:24:57;11.00;99.90
25554;DHT22;13446;50.926;5.332;2022-11-10T03:27:23;11.10;99.90
25554;DHT22;13446;50.926;5.332;2022-11-10T03:29:48;11.00;99.90
25554;DHT22;13446;50.926;5.332;2022-11-10T03:32:14;10.80;99.90
25554;DHT22;13446;50.926;5.332;2022-11-10T03:34:39;10.80;99.90
25554;DHT22;13446;50.926;5.332;2022-11-10T03:37:06;10.90;99.90
25554;DHT22;13446;50.926;5.332;2022-11-10T03:39:31;10.90;99.90
25554;DHT22;13446;50.926;5.332;2022-11-10T03:41:57;10.90;99.90
25554;DHT22;13446;50.926;5.332;2022-11-10T03:44:22;10.90;99.90
25554;DHT22;13446;50.926;5.332;2022-11-10T03:46:48;10.70;99.90
25554;DHT22;13446;50.926;5.332;2022-11-10T03:49:13;10.60;99.90
25554;DHT22;13446;50.926;5.332;2022-11-10T03:51:39;10.50;99.90
25554;DHT22;13446;50.926;5.332;2022-11-10T03:54:04;10.40;99.90
25554;DHT22;13446;50.926;5.332;2022-11-10T03:56:30;10.50;99.90
25554;DHT22;13446;50.926;5.332;2022-11-10T03:58:55;10.50;99.90
25554;DHT22;13446;50.926;5.332;2022-11-10T04:01:21;10.40;99.90
25554;DHT22;13446;50.926;5.332;2022-11-10T04:03:48;10.50;99.90
25554;DHT22;13446;50.926;5.332;2022-11-10T04:06:13;10.50;99.90
25554;DHT22;13446;50.926;5.332;2022-11-10T04:08:57;10.50;99.90
25554;DHT22;13446;50.926;5.332;2022-11-10T04:11:23;10.50;99.90
25554;DHT22;13446;50.926;5.332;2022-11-10T04:14:07;10.50;99.90
25554;DHT22;13446;50.926;5.332;2022-11-10T04:17:00;10.40;99.90
25554;DHT22;13446;50.926;5.332;2022-11-10T04:19:26;10.30;99.90
25554;DHT22;13446;50.926;5.332;2022-11-10T04:21:52;10.40;99.90
25554;DHT22;13446;50.926;5.332;2022-11-10T04:24:17;10.30;99.90
25554;DHT22;13446;50.926;5.332;2022-11-10T04:26:43;10.40;99.90
25554;DHT22;13446;50.926;5.332;2022-11-10T04:29:10;10.40;99.90
25554;DHT22;13446;50.926;5.332;2022-11-10T04:31:37;10.40;99.90
25554;DHT22;13446;50.926;5.332;2022-11-10T04:34:03;10.40;99.90
25554;DHT22;13446;50.926;5.332;2022-11-10T04:36:30;10.40;99.90
25554;DHT22;13446;50.926;5.332;2022-11-10T04:38:56;10.40;99.90
25554;DHT22;13446;50.926;5.332;2022-11-10T04:41:22;10.40;99.90
25554;DHT22;13446;50.926;5.332;2022-11-10T04:43:48;10.30;99.90
25554;DHT22;13446;50.926;5.332;2022-11-10T04:46:29;10.30;99.90
25554;DHT22;13446;50.926;5.332;2022-11-10T04:48:56;10.20;99.90
25554;DHT22;13446;50.926;5.332;2022-11-10T04:51:28;10.30;99.90
25554;DHT22;13446;50.926;5.332;2022-11-10T04:53:54;10.20;99.90
25554;DHT22;13446;50.926;5.332;2022-11-10T04:56:21;10.30;99.90
25554;DHT22;13446;50.926;5.332;2022-11-10T04:58:47;10.30;99.90
25554;DHT22;13446;50.926;5.332;2022-11-10T05:01:13;10.20;99.90
25554;DHT22;13446;50.926;5.332;2022-11-10T05:03:39;10.10;99.90
25554;DHT22;13446;50.926;5.332;2022-11-10T05:06:04;10.20;99.90
25554;DHT22;13446;50.926;5.332;2022-11-10T05:08:30;10.20;99.90
25554;DHT22;13446;50.926;5.332;2022-11-10T05:10:56;10.10;99.90
25554;DHT22;13446;50.926;5.332;2022-11-10T05:13:21;10.10;99.90
25554;DHT22;13446;50.926;5.332;2022-11-10T05:15:47;10.10;99.90
25554;DHT22;13446;50.926;5.332;2022-11-10T05:18:12;10.10;99.90
25554;DHT22;13446;50.926;5.332;2022-11-10T05:20:38;10.10;99.90
25554;DHT22;13446;50.926;5.332;2022-11-10T05:23:03;10.10;99.90
25554;DHT22;13446;50.926;5.332;2022-11-10T05:25:47;10.00;99.90
25554;DHT22;13446;50.926;5.332;2022-11-10T05:28:14;10.00;99.90
25554;DHT22;13446;50.926;5.332;2022-11-10T05:30:40;10.00;99.90
25554;DHT22;13446;50.926;5.332;2022-11-10T05:33:06;10.10;99.90
25554;DHT22;13446;50.926;5.332;2022-11-10T05:35:32;10.20;99.90
25554;DHT22;13446;50.926;5.332;2022-11-10T05:37:57;10.10;99.90
25554;DHT22;13446;50.926;5.332;2022-11-10T05:40:23;10.00;99.90
25554;DHT22;13446;50.926;5.332;2022-11-10T05:42:49;10.00;99.90
25554;DHT22;13446;50.926;5.332;2022-11-10T05:45:27;9.90;99.90
25554;DHT22;13446;50.926;5.332;2022-11-10T05:47:52;9.80;99.90
25554;DHT22;13446;50.926;5.332;2022-11-10T05:50:18;9.90;99.90
25554;DHT22;13446;50.926;5.332;2022-11-10T05:52:45;9.90;99.90
25554;DHT22;13446;50.926;5.332;2022-11-10T05:55:12;9.80;99.90
25554;DHT22;13446;50.926;5.332;2022-11-10T05:57:42;9.90;99.90
25554;DHT22;13446;50.926;5.332;2022-11-10T06:00:09;9.80;99.90
25554;DHT22;13446;50.926;5.332;2022-11-10T06:02:35;9.90;99.90
25554;DHT22;13446;50.926;5.332;2022-11-10T06:05:01;9.90;99.90
25554;DHT22;13446;50.926;5.332;2022-11-10T06:07:30;9.90;99.90
25554;DHT22;13446;50.926;5.332;2022-11-10T06:09:56;9.90;99.90
25554;DHT22;13446;50.926;5.332;2022-11-10T06:12:21;10.00;99.90
25554;DHT22;13446;50.926;5.332;2022-11-10T06:14:49;9.90;99.90
25554;DHT22;13446;50.926;5.332;2022-11-10T06:17:15;9.90;99.90
25554;DHT22;13446;50.926;5.332;2022-11-10T06:19:42;10.00;99.90
25554;DHT22;13446;50.926;5.332;2022-11-10T06:22:07;9.80;99.90
25554;DHT22;13446;50.926;5.332;2022-11-10T06:24:33;9.80;99.90
25554;DHT22;13446;50.926;5.332;2022-11-10T06:26:58;9.90;99.90
25554;DHT22;13446;50.926;5.332;2022-11-10T06:29:25;9.90;99.90
25554;DHT22;13446;50.926;5.332;2022-11-10T06:31:51;9.80;99.90
25554;DHT22;13446;50.926;5.332;2022-11-10T06:34:17;9.80;99.90
25554;DHT22;13446;50.926;5.332;2022-11-10T06:36:42;9.70;99.90
25554;DHT22;13446;50.926;5.332;2022-11-10T06:39:08;9.70;99.90
25554;DHT22;13446;50.926;5.332;2022-11-10T06:41:33;9.80;99.90
25554;DHT22;13446;50.926;5.332;2022-11-10T06:43:59;9.80;99.90
25554;DHT22;13446;50.926;5.332;2022-11-10T06:46:25;9.80;99.90
25554;DHT22;13446;50.926;5.332;2022-11-10T06:48:50;9.80;99.90
25554;DHT22;13446;50.926;5.332;2022-11-10T06:51:16;9.80;99.90
25554;DHT22;13446;50.926;5.332;2022-11-10T06:53:43;9.80;99.90
25554;DHT22;13446;50.926;5.332;2022-11-10T06:56:08;9.80;99.90
25554;DHT22;13446;50.926;5.332;2022-11-10T06:58:34;9.90;99.90
25554;DHT22;13446;50.926;5.332;2022-11-10T07:01:00;10.00;99.90
25554;DHT22;13446;50.926;5.332;2022-11-10T07:03:26;10.00;99.90
25554;DHT22;13446;50.926;5.332;2022-11-10T07:05:52;10.00;99.90
25554;DHT22;13446;50.926;5.332;2022-11-10T07:08:18;10.10;99.90
25554;DHT22;13446;50.926;5.332;2022-11-10T07:10:53;10.10;99.90
25554;DHT22;13446;50.926;5.332;2022-11-10T07:13:19;10.00;99.90
25554;DHT22;13446;50.926;5.332;2022-11-10T07:15:44;10.10;99.90
25554;DHT22;13446;50.926;5.332;2022-11-10T07:18:10;10.30;99.90
25554;DHT22;13446;50.926;5.332;2022-11-10T07:20:36;10.30;99.90
25554;DHT22;13446;50.926;5.332;2022-11-10T07:23:03;10.20;99.90
25554;DHT22;13446;50.926;5.332;2022-11-10T07:25:30;10.30;99.90
25554;DHT22;13446;50.926;5.332;2022-11-10T07:27:57;10.40;99.90
25554;DHT22;13446;50.926;5.332;2022-11-10T07:30:22;10.40;99.90
25554;DHT22;13446;50.926;5.332;2022-11-10T07:33:04;10.40;99.90
25554;DHT22;13446;50.926;5.332;2022-11-10T07:35:32;10.40;99.90
25554;DHT22;13446;50.926;5.332;2022-11-10T07:38:00;10.50;99.90
25554;DHT22;13446;50.926;5.332;2022-11-10T07:40:26;10.50;99.90
25554;DHT22;13446;50.926;5.332;2022-11-10T07:42:51;10.60;99.90
25554;DHT22;13446;50.926;5.332;2022-11-10T07:45:17;10.70;99.90
25554;DHT22;13446;50.926;5.332;2022-11-10T07:47:42;10.80;99.90
25554;DHT22;13446;50.926;5.332;2022-11-10T07:50:08;10.90;99.90
25554;DHT22;13446;50.926;5.332;2022-11-10T07:52:34;11.10;99.90
25554;DHT22;13446;50.926;5.332;2022-11-10T07:54:59;11.20;99.90
25554;DHT22;13446;50.926;5.332;2022-11-10T07:57:25;11.30;99.90
25554;DHT22;13446;50.926;5.332;2022-11-10T07:59:50;12.10;99.90
25554;DHT22;13446;50.926;5.332;2022-11-10T08:02:16;13.10;99.90
25554;DHT22;13446;50.926;5.332;2022-11-10T08:04:41;14.20;99.90
25554;DHT22;13446;50.926;5.332;2022-11-10T08:07:07;15.30;99.90
25554;DHT22;13446;50.926;5.332;2022-11-10T08:09:33;16.30;99.90
25554;DHT22;13446;50.926;5.332;2022-11-10T08:11:58;17.30;99.90
25554;DHT22;13446;50.926;5.332;2022-11-10T08:14:24;18.10;99.90
25554;DHT22;13446;50.926;5.332;2022-11-10T08:16:50;18.50;99.90
25554;DHT22;13446;50.926;5.332;2022-11-10T08:19:15;19.20;99.90
25554;DHT22;13446;50.926;5.332;2022-11-10T08:21:41;20.00;99.90
25554;DHT22;13446;50.926;5.332;2022-11-10T08:24:07;20.80;99.90
25554;DHT22;13446;50.926;5.332;2022-11-10T08:26:32;21.10;99.90
25554;DHT22;13446;50.926;5.332;2022-11-10T08:28:58;21.20;99.90
25554;DHT22;13446;50.926;5.332;2022-11-10T08:31:23;21.90;99.20
25554;DHT22;13446;50.926;5.332;2022-11-10T08:33:49;22.40;97.40
25554;DHT22;13446;50.926;5.332;2022-11-10T08:36:14;22.60;96.00
25554;DHT22;13446;50.926;5.332;2022-11-10T08:38:40;22.70;94.90
25554;DHT22;13446;50.926;5.332;2022-11-10T08:41:05;22.90;95.40
25554;DHT22;13446;50.926;5.332;2022-11-10T08:43:31;22.80;93.20
25554;DHT22;13446;50.926;5.332;2022-11-10T08:45:57;23.60;93.40
25554;DHT22;13446;50.926;5.332;2022-11-10T08:48:23;24.00;91.30
25554;DHT22;13446;50.926;5.332;2022-11-10T08:50:49;24.50;90.30
25554;DHT22;13446;50.926;5.332;2022-11-10T08:53:17;24.90;88.50
25554;DHT22;13446;50.926;5.332;2022-11-10T08:55:43;25.00;84.00
25554;DHT22;13446;50.926;5.332;2022-11-10T08:58:10;24.60;85.70
25554;DHT22;13446;50.926;5.332;2022-11-10T09:00:36;24.80;85.30
25554;DHT22;13446;50.926;5.332;2022-11-10T09:03:03;25.80;82.10
25554;DHT22;13446;50.926;5.332;2022-11-10T09:05:29;25.60;78.10
25554;DHT22;13446;50.926;5.332;2022-11-10T09:07:55;25.90;78.30
25554;DHT22;13446;50.926;5.332;2022-11-10T09:10:20;26.30;75.20
25554;DHT22;13446;50.926;5.332;2022-11-10T09:12:47;26.80;74.00
25554;DHT22;13446;50.926;5.332;2022-11-10T09:15:13;26.50;72.30
25554;DHT22;13446;50.926;5.332;2022-11-10T09:17:39;27.30;71.70
25554;DHT22;13446;50.926;5.332;2022-11-10T09:20:05;27.30;67.60
25554;DHT22;13446;50.926;5.332;2022-11-10T09:22:33;26.70;67.60
25554;DHT22;13446;50.926;5.332;2022-11-10T09:24:59;27.00;68.80
25554;DHT22;13446;50.926;5.332;2022-11-10T09:27:24;27.30;66.90
25554;DHT22;13446;50.926;5.332;2022-11-10T09:29:50;26.50;67.70
25554;DHT22;13446;50.926;5.332;2022-11-10T09:32:15;26.70;67.00
25554;DHT22;13446;50.926;5.332;2022-11-10T09:34:41;27.00;68.10
25554;DHT22;13446;50.926;5.332;2022-11-10T09:37:07;27.70;65.80
25554;DHT22;13446;50.926;5.332;2022-11-10T09:39:33;28.00;63.40
25554;DHT22;13446;50.926;5.332;2022-11-10T09:41:58;27.50;62.50
25554;DHT22;13446;50.926;5.332;2022-11-10T09:44:25;27.90;64.40
25554;DHT22;13446;50.926;5.332;2022-11-10T09:46:59;28.20;62.00
25554;DHT22;13446;50.926;5.332;2022-11-10T09:49:30;28.90;60.60
25554;DHT22;13446;50.926;5.332;2022-11-10T09:51:59;29.20;59.50
25554;DHT22;13446;50.926;5.332;2022-11-10T09:57:28;29.90;57.20
25554;DHT22;13446;50.926;5.332;2022-11-10T09:59:54;29.90;55.60
25554;DHT22;13446;50.926;5.332;2022-11-10T10:07:55;29.80;54.70
25554;DHT22;13446;50.926;5.332;2022-11-10T10:22:58;29.00;55.50
25554;DHT22;13446;50.926;5.332;2022-11-10T10:25:25;28.00;56.40
25554;DHT22;13446;50.926;5.332;2022-11-10T10:27:59;27.80;57.10
25554;DHT22;13446;50.926;5.332;2022-11-10T10:30:28;28.00;56.90
25554;DHT22;13446;50.926;5.332;2022-11-10T10:32:55;28.20;56.80
25554;DHT22;13446;50.926;5.332;2022-11-10T10:35:21;28.00;57.30
25554;DHT22;13446;50.926;5.332;2022-11-10T10:37:47;28.10;57.10
25554;DHT22;13446;50.926;5.332;2022-11-10T10:40:16;27.60;57.60
25554;DHT22;13446;50.926;5.332;2022-11-10T10:42:42;27.70;57.80
25554;DHT22;13446;50.926;5.332;2022-11-10T10:47:36;27.40;58.50
25554;DHT22;13446;50.926;5.332;2022-11-10T10:58:28;27.30;57.30
25554;DHT22;13446;50.926;5.332;2022-11-10T11:00:55;26.70;59.60
25554;DHT22;13446;50.926;5.332;2022-11-10T11:06:17;26.70;62.30
25554;DHT22;13446;50.926;5.332;2022-11-10T11:13:52;27.90;57.40
25554;DHT22;13446;50.926;5.332;2022-11-10T11:16:18;27.80;57.50
25554;DHT22;13446;50.926;5.332;2022-11-10T11:18:43;27.50;58.10
25554;DHT22;13446;50.926;5.332;2022-11-10T11:34:21;28.50;54.30
25554;DHT22;13446;50.926;5.332;2022-11-10T11:42:13;29.30;53.80
25554;DHT22;13446;50.926;5.332;2022-11-10T11:44:46;28.90;54.60
25554;DHT22;13446;50.926;5.332;2022-11-10T11:49:54;29.10;53.20
25554;DHT22;13446;50.926;5.332;2022-11-10T11:52:41;29.70;53.10
25554;DHT22;13446;50.926;5.332;2022-11-10T11:57:52;28.00;53.70
25554;DHT22;13446;50.926;5.332;2022-11-10T12:00:21;27.80;53.90
25554;DHT22;13446;50.926;5.332;2022-11-10T12:16:32;26.40;56.10
25554;DHT22;13446;50.926;5.332;2022-11-10T12:21:42;25.00;60.10
25554;DHT22;13446;50.926;5.332;2022-11-10T12:31:38;23.80;64.40
25554;DHT22;13446;50.926;5.332;2022-11-10T12:36:49;22.60;69.90
25554;DHT22;13446;50.926;5.332;2022-11-10T12:39:17;22.60;71.70
25554;DHT22;13446;50.926;5.332;2022-11-10T12:41:45;22.10;72.90
25554;DHT22;13446;50.926;5.332;2022-11-10T12:46:37;21.50;75.60
25554;DHT22;13446;50.926;5.332;2022-11-10T12:51:37;21.40;80.00
25554;DHT22;13446;50.926;5.332;2022-11-10T12:54:07;21.60;79.90
25554;DHT22;13446;50.926;5.332;2022-11-10T12:56:36;22.00;78.70
25554;DHT22;13446;50.926;5.332;2022-11-10T13:01:44;23.00;74.70
25554;DHT22;13446;50.926;5.332;2022-11-10T13:04:12;23.40;73.80
25554;DHT22;13446;50.926;5.332;2022-11-10T13:06:43;23.40;73.20
25554;DHT22;13446;50.926;5.332;2022-11-10T13:09:20;23.20;72.80
25554;DHT22;13446;50.926;5.332;2022-11-10T13:12:01;23.10;75.30
25554;DHT22;13446;50.926;5.332;2022-11-10T13:14:28;23.40;73.70
25554;DHT22;13446;50.926;5.332;2022-11-10T13:16:54;23.40;72.20
25554;DHT22;13446;50.926;5.332;2022-11-10T13:29:18;22.30;76.70
25554;DHT22;13446;50.926;5.332;2022-11-10T13:31:49;22.20;78.00
25554;DHT22;13446;50.926;5.332;2022-11-10T13:36:44;22.00;78.90
25554;DHT22;13446;50.926;5.332;2022-11-10T13:41:58;22.00;78.10
25554;DHT22;13446;50.926;5.332;2022-11-10T13:44:26;21.90;78.80
25554;DHT22;13446;50.926;5.332;2022-11-10T13:57:28;19.70;89.20
25554;DHT22;13446;50.926;5.332;2022-11-10T13:59:55;19.50;90.20
25554;DHT22;13446;50.926;5.332;2022-11-10T14:04:56;19.30;91.00
25554;DHT22;13446;50.926;5.332;2022-11-10T14:07:21;19.10;92.10
25554;DHT22;13446;50.926;5.332;2022-11-10T14:09:49;19.20;92.40
25554;DHT22;13446;50.926;5.332;2022-11-10T14:14:55;19.00;93.60
25554;DHT22;13446;50.926;5.332;2022-11-10T14:17:29;18.80;94.10
25554;DHT22;13446;50.926;5.332;2022-11-10T14:19:56;18.60;95.00
25554;DHT22;13446;50.926;5.332;2022-11-10T14:27:24;18.20;96.40
25554;DHT22;13446;50.926;5.332;2022-11-10T14:30:02;17.90;97.50
25554;DHT22;13446;50.926;5.332;2022-11-10T14:32:28;17.80;98.30
25554;DHT22;13446;50.926;5.332;2022-11-10T14:34:53;17.60;99.60
25554;DHT22;13446;50.926;5.332;2022-11-10T14:37:24;17.30;99.90
25554;DHT22;13446;50.926;5.332;2022-11-10T14:39:50;17.30;99.90
25554;DHT22;13446;50.926;5.332;2022-11-10T14:42:19;17.40;99.90
25554;DHT22;13446;50.926;5.332;2022-11-10T14:44:45;17.30;99.90
25554;DHT22;13446;50.926;5.332;2022-11-10T14:47:14;17.20;99.90
25554;DHT22;13446;50.926;5.332;2022-11-10T14:49:40;17.30;99.90
25554;DHT22;13446;50.926;5.332;2022-11-10T14:52:07;17.20;99.90
25554;DHT22;13446;50.926;5.332;2022-11-10T14:54:34;17.20;99.90
25554;DHT22;13446;50.926;5.332;2022-11-10T14:57:00;17.20;99.90
25554;DHT22;13446;50.926;5.332;2022-11-10T14:59:26;17.20;99.90
25554;DHT22;13446;50.926;5.332;2022-11-10T15:01:53;17.30;99.90
25554;DHT22;13446;50.926;5.332;2022-11-10T15:04:19;17.00;99.90
25554;DHT22;13446;50.926;5.332;2022-11-10T15:06:46;17.00;99.90
25554;DHT22;13446;50.926;5.332;2022-11-10T15:09:14;17.00;99.90
25554;DHT22;13446;50.926;5.332;2022-11-10T15:11:45;17.00;99.90
25554;DHT22;13446;50.926;5.332;2022-11-10T15:14:31;16.90;99.90
25554;DHT22;13446;50.926;5.332;2022-11-10T15:17:03;16.80;99.90
25554;DHT22;13446;50.926;5.332;2022-11-10T15:19:31;16.60;99.90
25554;DHT22;13446;50.926;5.332;2022-11-10T15:24:45;16.50;99.90
25554;DHT22;13446;50.926;5.332;2022-11-10T15:27:12;16.40;99.90
25554;DHT22;13446;50.926;5.332;2022-11-10T15:29:46;16.40;99.90
25554;DHT22;13446;50.926;5.332;2022-11-10T15:32:16;16.40;99.90
25554;DHT22;13446;50.926;5.332;2022-11-10T15:34:44;16.40;99.90
25554;DHT22;13446;50.926;5.332;2022-11-10T15:37:11;16.20;99.90
25554;DHT22;13446;50.926;5.332;2022-11-10T15:39:36;16.10;99.90
25554;DHT22;13446;50.926;5.332;2022-11-10T15:42:10;16.00;99.90
25554;DHT22;13446;50.926;5.332;2022-11-10T15:44:36;15.80;99.90
25554;DHT22;13446;50.926;5.332;2022-11-10T15:47:02;15.70;99.90
25554;DHT22;13446;50.926;5.332;2022-11-10T15:49:31;15.70;99.90
25554;DHT22;13446;50.926;5.332;2022-11-10T15:51:59;15.60;99.90
25554;DHT22;13446;50.926;5.332;2022-11-10T15:54:26;15.50;99.90
25554;DHT22;13446;50.926;5.332;2022-11-10T15:56:53;15.40;99.90
25554;DHT22;13446;50.926;5.332;2022-11-10T15:59:19;15.30;99.90
25554;DHT22;13446;50.926;5.332;2022-11-10T16:01:44;15.20;99.90
25554;DHT22;13446;50.926;5.332;2022-11-10T16:04:10;15.10;99.90
25554;DHT22;13446;50.926;5.332;2022-11-10T16:06:36;15.10;99.90
25554;DHT22;13446;50.926;5.332;2022-11-10T16:09:01;14.90;99.90
25554;DHT22;13446;50.926;5.332;2022-11-10T16:11:27;14.90;99.90
25554;DHT22;13446;50.926;5.332;2022-11-10T16:13:54;15.00;99.90
25554;DHT22;13446;50.926;5.332;2022-11-10T16:16:20;14.90;99.90
25554;DHT22;13446;50.926;5.332;2022-11-10T16:18:49;14.80;99.90
25554;DHT22;13446;50.926;5.332;2022-11-10T16:21:15;14.70;99.90
25554;DHT22;13446;50.926;5.332;2022-11-10T16:23:41;14.70;99.90
25554;DHT22;13446;50.926;5.332;2022-11-10T16:26:09;14.70;99.90
25554;DHT22;13446;50.926;5.332;2022-11-10T16:28:35;14.60;99.90
25554;DHT22;13446;50.926;5.332;2022-11-10T16:31:01;14.50;99.90
25554;DHT22;13446;50.926;5.332;2022-11-10T16:33:27;14.50;99.90
25554;DHT22;13446;50.926;5.332;2022-11-10T16:35:53;14.50;99.90
25554;DHT22;13446;50.926;5.332;2022-11-10T16:38:29;14.50;99.90
25554;DHT22;13446;50.926;5.332;2022-11-10T16:40:58;14.40;99.90
25554;DHT22;13446;50.926;5.332;2022-11-10T16:43:24;14.40;99.90
25554;DHT22;13446;50.926;5.332;2022-11-10T16:45:51;14.40;99.90
25554;DHT22;13446;50.926;5.332;2022-11-10T16:48:23;14.20;99.90
25554;DHT22;13446;50.926;5.332;2022-11-10T16:50:49;14.20;99.90
25554;DHT22;13446;50.926;5.332;2022-11-10T16:53:16;14.10;99.90
25554;DHT22;13446;50.926;5.332;2022-11-10T16:55:42;14.00;99.90
25554;DHT22;13446;50.926;5.332;2022-11-10T16:58:08;14.00;99.90
25554;DHT22;13446;50.926;5.332;2022-11-10T17:00:34;13.90;99.90
25554;DHT22;13446;50.926;5.332;2022-11-10T17:03:01;13.80;99.90
25554;DHT22;13446;50.926;5.332;2022-11-10T17:05:29;13.80;99.90
25554;DHT22;13446;50.926;5.332;2022-11-10T17:07:54;13.80;99.90
25554;DHT22;13446;50.926;5.332;2022-11-10T17:10:20;13.70;99.90
25554;DHT22;13446;50.926;5.332;2022-11-10T17:12:46;13.70;99.90
25554;DHT22;13446;50.926;5.332;2022-11-10T17:15:13;13.70;99.90
25554;DHT22;13446;50.926;5.332;2022-11-10T17:17:41;13.70;99.90
25554;DHT22;13446;50.926;5.332;2022-11-10T17:22:57;13.70;99.90
25554;DHT22;13446;50.926;5.332;2022-11-10T17:25:25;13.60;99.90
25554;DHT22;13446;50.926;5.332;2022-11-10T17:27:52;13.50;99.90
25554;DHT22;13446;50.926;5.332;2022-11-10T17:30:18;13.40;99.90
25554;DHT22;13446;50.926;5.332;2022-11-10T17:32:43;13.40;99.90
25554;DHT22;13446;50.926;5.332;2022-11-10T17:35:09;13.50;99.90
25554;DHT22;13446;50.926;5.332;2022-11-10T17:37:34;13.40;99.90
25554;DHT22;13446;50.926;5.332;2022-11-10T17:40:01;13.50;99.90
25554;DHT22;13446;50.926;5.332;2022-11-10T17:42:27;13.50;99.90
25554;DHT22;13446;50.926;5.332;2022-11-10T17:44:53;13.40;99.90
25554;DHT22;13446;50.926;5.332;2022-11-10T17:47:18;13.20;99.90
25554;DHT22;13446;50.926;5.332;2022-11-10T17:49:44;13.20;99.90
25554;DHT22;13446;50.926;5.332;2022-11-10T17:52:10;13.20;99.90